createdAt,value
2019-05-14T00:02:57.907Z,8.90
2019-05-14T00:08:22.099Z,8.86
2019-05-14T00:13:46.110Z,8.74
2019-05-14T00:19:11.189Z,8.64
2019-05-14T00:24:35.019Z,8.58
2019-05-14T00:29:57.855Z,8.52
2019-05-14T00:35:21.663Z,8.52
2019-05-14T00:40:44.502Z,8.61
2019-05-14T00:46:07.571Z,8.69
2019-05-14T00:51:31.841Z,8.67
2019-05-14T00:56:55.270Z,8.54
2019-05-14T01:02:18.275Z,8.48
2019-05-14T01:07:42.299Z,8.62
2019-05-14T01:13:06.558Z,8.42
2019-05-14T01:18:32.269Z,8.41
2019-05-14T01:23:54.904Z,8.43
2019-05-14T01:29:18.338Z,8.29
2019-05-14T01:34:42.332Z,8.27
2019-05-14T01:40:07.397Z,8.17
2019-05-14T01:45:31.698Z,8.12
2019-05-14T01:50:55.262Z,8.02
2019-05-14T01:56:18.536Z,7.94
2019-05-14T02:01:42.223Z,7.95
2019-05-14T02:07:05.470Z,7.95
2019-05-14T02:12:31.386Z,7.84
2019-05-14T02:17:53.674Z,7.82
2019-05-14T02:23:16.966Z,7.78
2019-05-14T02:28:42.022Z,7.68
2019-05-14T02:34:05.514Z,7.58
2019-05-14T02:39:29.180Z,7.74
2019-05-14T02:44:52.250Z,7.48
2019-05-14T02:50:19.955Z,7.55
2019-05-14T02:55:41.388Z,7.55
2019-05-14T03:01:04.187Z,7.36
2019-05-14T03:06:29.147Z,7.33
2019-05-14T03:11:52.679Z,7.29
2019-05-14T03:17:19.549Z,7.12
2019-05-14T03:22:54.860Z,7.03
2019-05-14T03:28:09.009Z,6.89
2019-05-14T03:33:33.307Z,6.83
2019-05-14T03:38:55.305Z,6.74
2019-05-14T03:44:19.991Z,6.56
2019-05-14T03:49:43.648Z,6.71
2019-05-14T03:55:09.484Z,6.71
2019-05-14T04:00:50.997Z,6.68
2019-05-14T04:06:18.997Z,6.81
2019-05-14T04:11:42.700Z,6.77
2019-05-14T04:17:11.230Z,6.73
2019-05-14T04:22:33.772Z,6.67
2019-05-14T04:27:59.799Z,6.79
2019-05-14T04:33:29.914Z,6.75
2019-05-14T04:38:55.185Z,6.81
2019-05-14T04:44:18.947Z,6.86
2019-05-14T04:49:41.009Z,6.82
2019-05-14T04:55:09.037Z,6.88
2019-05-14T05:00:31.166Z,6.96
2019-05-14T05:05:54.829Z,7.18
2019-05-14T05:11:21.229Z,7.18
2019-05-14T05:16:43.014Z,7.20
2019-05-14T05:22:08.033Z,7.40
2019-05-14T05:27:31.677Z,7.52
2019-05-14T05:32:54.851Z,7.50
2019-05-14T05:38:18.494Z,7.64
2019-05-14T05:43:41.874Z,7.85
2019-05-14T05:49:05.248Z,7.78
2019-05-14T05:54:29.343Z,7.82
2019-05-14T05:59:53.189Z,7.96
2019-05-14T06:05:18.609Z,8.00
2019-05-14T06:10:41.141Z,8.03
2019-05-14T06:16:04.542Z,8.09
2019-05-14T06:21:29.277Z,8.16
2019-05-14T06:26:53.359Z,8.68
2019-05-14T06:32:18.667Z,8.71
2019-05-14T06:37:41.796Z,8.88
2019-05-14T06:43:04.853Z,8.68
2019-05-14T06:48:34.471Z,8.48
2019-05-14T06:53:53.539Z,8.86
2019-05-14T06:59:18.234Z,8.89
2019-05-14T07:04:41.809Z,9.11
2019-05-14T07:10:09.029Z,9.30
2019-05-14T07:15:31.464Z,9.37
2019-05-14T07:20:55.190Z,9.51
2019-05-14T07:26:19.294Z,9.39
2019-05-14T07:31:42.337Z,9.51
2019-05-14T07:37:09.279Z,9.91
2019-05-14T07:42:32.202Z,9.89
2019-05-14T07:47:57.933Z,10.37
2019-05-14T07:53:33.984Z,10.38
2019-05-14T07:58:46.163Z,10.43
2019-05-14T08:04:10.786Z,10.56
2019-05-14T08:09:34.385Z,10.63
2019-05-14T08:15:14.330Z,10.49
2019-05-14T08:20:23.384Z,10.81
2019-05-14T08:25:48.096Z,11.01
2019-05-14T08:31:11.970Z,11.47
2019-05-14T08:36:37.818Z,11.35
2019-05-14T08:42:04.053Z,11.38
2019-05-14T08:47:24.810Z,11.37
2019-05-14T08:52:48.520Z,12.04
2019-05-14T08:58:13.933Z,12.11
2019-05-14T09:03:35.963Z,11.64
2019-05-14T09:08:59.776Z,11.41
2019-05-14T09:14:23.036Z,11.92
2019-05-14T09:20:01.027Z,11.87
2019-05-14T09:25:11.206Z,11.88
2019-05-14T09:30:34.258Z,11.83
2019-05-14T09:36:13.758Z,12.13
2019-05-14T09:41:22.833Z,12.45
2019-05-14T09:46:46.317Z,12.34
2019-05-14T09:52:10.037Z,12.56
2019-05-14T09:57:33.624Z,12.47
2019-05-14T10:02:59.492Z,12.95
2019-05-14T10:08:21.444Z,13.51
2019-05-14T10:13:45.018Z,12.88
2019-05-14T10:19:08.431Z,12.19
2019-05-14T10:24:31.711Z,12.09
2019-05-14T10:29:55.093Z,12.89
2019-05-14T10:35:19.155Z,13.51
2019-05-14T10:40:42.254Z,12.88
2019-05-14T10:46:05.633Z,12.33
2019-05-14T10:51:28.805Z,12.53
2019-05-14T10:56:52.005Z,12.97
2019-05-14T11:02:15.541Z,12.21
2019-05-14T11:07:41.772Z,12.12
2019-05-14T11:13:04.294Z,12.38
2019-05-14T11:18:29.108Z,12.43
2019-05-14T11:23:52.632Z,12.48
2019-05-14T11:29:18.387Z,13.40
2019-05-14T11:34:41.021Z,15.50
2019-05-14T11:40:08.724Z,15.63
2019-05-14T11:45:32.104Z,13.48
2019-05-14T11:50:55.459Z,14.65
2019-05-14T11:56:19.634Z,13.41
2019-05-14T12:01:43.099Z,13.06
2019-05-14T12:07:05.903Z,12.65
2019-05-14T12:12:29.535Z,12.71
2019-05-14T12:17:52.893Z,12.72
2019-05-14T12:23:16.316Z,13.38
2019-05-14T12:28:39.584Z,13.07
2019-05-14T12:34:02.930Z,12.38
2019-05-14T12:39:26.269Z,12.49
2019-05-14T12:44:49.929Z,12.74
2019-05-14T12:50:14.013Z,13.08
2019-05-14T12:55:39.978Z,13.39
2019-05-14T13:01:01.902Z,16.42
2019-05-14T13:06:24.768Z,15.81
2019-05-14T13:11:48.172Z,15.72
2019-05-14T13:17:11.336Z,15.28
2019-05-14T13:22:43.753Z,14.44
2019-05-14T13:27:59.564Z,13.76
2019-05-14T13:33:22.163Z,14.08
2019-05-14T13:38:48.814Z,15.86
2019-05-14T13:44:24.067Z,15.90
2019-05-14T13:49:35.444Z,14.47
2019-05-14T13:54:58.423Z,13.65
2019-05-14T14:00:22.283Z,13.38
2019-05-14T14:05:45.328Z,13.53
2019-05-14T14:11:12.644Z,13.49
2019-05-14T14:16:33.216Z,14.23
2019-05-14T14:21:59.024Z,13.76
2019-05-14T14:27:21.246Z,13.20
2019-05-14T14:32:44.344Z,13.51
2019-05-14T14:38:08.720Z,13.89
2019-05-14T14:43:31.713Z,14.64
2019-05-14T14:48:57.806Z,13.62
2019-05-14T14:54:19.859Z,13.19
2019-05-14T14:59:43.412Z,13.68
2019-05-14T15:05:12.812Z,13.15
2019-05-14T15:10:34.484Z,13.84
2019-05-14T15:16:00.826Z,13.41
2019-05-14T15:21:22.270Z,13.65
2019-05-14T15:26:45.952Z,13.01
2019-05-14T15:32:09.435Z,13.10
2019-05-14T15:37:32.603Z,13.05
2019-05-14T15:43:01.597Z,12.70
2019-05-14T15:48:20.649Z,12.65
2019-05-14T15:54:02.685Z,12.80
2019-05-14T15:59:08.809Z,13.23
2019-05-14T16:04:32.741Z,13.63
2019-05-14T16:09:56.781Z,13.00
2019-05-14T16:15:20.374Z,13.34
2019-05-14T16:20:43.711Z,13.27
2019-05-14T16:26:08.890Z,13.77
2019-05-14T16:31:32.805Z,13.43
2019-05-14T16:36:58.451Z,13.00
2019-05-14T16:42:21.534Z,12.71
2019-05-14T16:47:45.024Z,12.59
2019-05-14T16:53:11.588Z,12.26
2019-05-14T16:58:32.661Z,12.39
2019-05-14T17:03:56.300Z,12.84
2019-05-14T17:09:19.767Z,12.32
2019-05-14T17:14:43.327Z,12.44
2019-05-14T17:20:08.551Z,12.72
2019-05-14T17:25:31.284Z,12.49
2019-05-14T17:30:54.868Z,12.07
2019-05-14T17:36:18.746Z,11.89
2019-05-14T17:41:42.599Z,11.71
2019-05-14T17:47:05.931Z,11.50
2019-05-14T17:52:30.288Z,11.36
2019-05-14T17:57:57.979Z,11.33
2019-05-14T18:03:18.590Z,11.26
2019-05-14T18:08:42.278Z,11.11
2019-05-14T18:14:11.960Z,10.98
2019-05-14T18:19:33.066Z,10.78
2019-05-14T18:24:59.098Z,10.72
2019-05-14T18:30:21.306Z,10.68
2019-05-14T18:35:47.511Z,10.62
2019-05-14T18:41:10.017Z,10.46
2019-05-14T18:46:33.488Z,10.36
2019-05-14T18:51:59.119Z,10.33
2019-05-14T18:57:21.324Z,10.19
2019-05-14T19:02:44.560Z,10.18
2019-05-14T19:08:08.231Z,10.04
2019-05-14T19:13:32.549Z,9.99
2019-05-14T19:18:58.367Z,9.84
2019-05-14T19:24:20.897Z,9.74
2019-05-14T19:29:44.119Z,9.62
2019-05-14T19:35:08.730Z,9.62
2019-05-14T19:40:32.451Z,9.55
2019-05-14T19:45:55.392Z,9.45
2019-05-14T19:51:18.897Z,9.26
2019-05-14T19:56:55.514Z,9.30
2019-05-14T20:02:09.552Z,9.04
2019-05-14T20:07:32.358Z,9.07
2019-05-14T20:12:56.358Z,8.97
2019-05-14T20:18:23.322Z,8.91
2019-05-14T20:23:48.090Z,8.92
2019-05-14T20:29:13.061Z,8.70
2019-05-14T20:34:36.317Z,8.76
2019-05-14T20:39:59.632Z,8.70
2019-05-14T20:45:23.168Z,8.56
2019-05-14T20:50:46.650Z,8.43
2019-05-14T20:56:10.030Z,8.37
2019-05-14T21:01:33.532Z,8.28
2019-05-14T21:06:58.741Z,8.28
2019-05-14T21:12:21.557Z,8.28
2019-05-14T21:17:45.167Z,8.06
2019-05-14T21:23:08.979Z,8.00
2019-05-14T21:28:32.778Z,7.96
2019-05-14T21:33:58.533Z,7.85
2019-05-14T21:39:21.231Z,7.78
2019-05-14T21:44:44.517Z,7.73
2019-05-14T21:50:09.068Z,7.63
2019-05-14T21:55:32.918Z,7.48
2019-05-14T22:00:59.248Z,7.45
2019-05-14T22:06:21.465Z,7.45
2019-05-14T22:11:44.358Z,7.35
2019-05-14T22:17:08.079Z,7.26
2019-05-14T22:22:31.532Z,7.28
2019-05-14T22:28:10.668Z,7.26
2019-05-14T22:33:19.825Z,7.11
2019-05-14T22:38:42.672Z,7.12
2019-05-14T22:44:05.993Z,6.90
2019-05-14T22:49:28.859Z,6.81
2019-05-14T22:54:51.795Z,6.74
2019-05-14T23:00:15.797Z,6.82
2019-05-14T23:05:39.474Z,6.60
2019-05-14T23:11:03.029Z,6.57
2019-05-14T23:16:34.458Z,6.44
2019-05-14T23:21:51.702Z,6.44
2019-05-14T23:27:15.064Z,6.45
2019-05-14T23:32:38.776Z,6.34
2019-05-14T23:38:01.624Z,6.32
2019-05-14T23:43:25.269Z,6.29
2019-05-14T23:48:48.974Z,6.34
2019-05-14T23:54:12.436Z,6.26
2019-05-14T23:59:35.740Z,6.23
